.
WxDataArchive / Data Records for 2009-03-21
2009-03-20 March 2009 2009-03-22

Data Records for Saturday, 21 March 2009

Time	Temp	Chill	HIndex	Humid	Dewpt	 Wind 	HiWind	WindDir	Rain 	Barom 
-----	----	-----	------	-----	-----	------	------	-------	-----	----- 
00:00	28.7	28.7	28.7	65	18.4	2	5	90	0.00	30.454 
00:05	28.7	28.7	28.7	65	18.4	2	5	90	0.00	30.452 
00:10	28.5	28.5	28.5	66	18.6	1	3	90	0.00	30.453 
00:15	28.4	28.4	28.4	66	18.5	1	3	90	0.00	30.459 
00:20	28.4	28.4	28.4	66	18.5	1	3	90	0.00	30.457 
00:25	28.2	28.2	28.2	66	18.3	1	3	90	0.00	30.453 
00:30	28.2	28.2	28.2	66	18.3	1	3	90	0.00	30.456 
00:35	28.4	28.4	28.4	66	18.5	2	4	112	0.00	30.457 
00:40	28.4	28.4	28.4	65	18.2	1	3	112	0.00	30.459 
00:45	28.5	28.5	28.5	65	18.3	1	4	90	0.00	30.456 
00:50	28.5	28.5	28.5	65	18.3	1	2	90	0.00	30.455 
00:55	28.4	28.4	28.4	65	18.2	1	3	90	0.00	30.457 
01:00	28.4	28.4	28.4	65	18.2	1	3	90	0.00	30.459 
01:05	28.2	28.2	28.2	65	18.0	1	2	90	0.00	30.459 
01:10	28.1	28.1	28.1	66	18.2	1	2	90	0.00	30.461 
01:15	28.1	28.1	28.1	66	18.2	1	3	90	0.00	30.463 
01:20	28.1	28.1	28.1	66	18.2	1	3	90	0.00	30.464 
01:25	27.9	27.9	27.9	66	18.0	1	2	90	0.00	30.465 
01:30	27.9	27.9	27.9	66	18.0	0	2	90	0.00	30.467 
01:35	27.9	27.9	27.9	67	18.4	0	2	90	0.00	30.467 
01:40	27.9	27.9	27.9	67	18.4	0	2	90	0.00	30.467 
01:45	28.1	28.1	28.1	67	18.6	0	1	90	0.00	30.466 
01:50	28.1	28.1	28.1	68	18.9	1	3	90	0.00	30.464 
01:55	27.9	27.9	27.9	69	19.1	1	2	90	0.00	30.463 
02:00	27.9	27.9	27.9	69	19.1	0	1	90	0.00	30.464 
02:05	27.9	27.9	27.9	69	19.1	0	2	90	0.00	30.463 
02:10	27.9	27.9	27.9	69	19.1	0	2	90	0.00	30.468 
02:15	27.9	27.9	27.9	69	19.1	0	2	90	0.00	30.466 
02:20	27.9	27.9	27.9	69	19.1	1	3	90	0.00	30.465 
02:25	27.9	27.9	27.9	69	19.1	0	2	90	0.00	30.470 
02:30	28.1	28.1	28.1	69	19.3	0	2	112	0.00	30.467 
02:35	28.1	28.1	28.1	69	19.3	0	1	112	0.00	30.464 
02:40	28.1	28.1	28.1	69	19.3	0	1	112	0.00	30.466 
02:45	28.2	28.2	28.2	69	19.4	1	2	112	0.00	30.465 
02:50	28.2	28.2	28.2	68	19.0	1	3	112	0.00	30.464 
02:55	28.2	28.2	28.2	69	19.4	0	2	112	0.00	30.463 
03:00	28.4	28.4	28.4	69	19.5	0	2	112	0.00	30.464 
03:05	28.4	28.4	28.4	69	19.5	0	1	112	0.00	30.464 
03:10	28.5	28.5	28.5	69	19.6	0	1	112	0.00	30.465 
03:15	28.5	28.5	28.5	69	19.6	0	1	112	0.00	30.465 
03:20	28.5	28.5	28.5	69	19.6	0	1	112	0.00	30.464 
03:25	28.7	28.7	28.7	70	20.2	0	1	112	0.00	30.464 
03:30	28.7	28.7	28.7	70	20.2	0	2	112	0.00	30.462 
03:35	28.8	28.8	28.8	70	20.3	0	2	112	0.00	30.461 
03:40	28.8	28.8	28.8	70	20.3	0	1	112	0.00	30.460 
03:45	28.8	28.8	28.8	70	20.3	0	1	112	0.00	30.459 
03:50	29.0	29.0	29.0	71	20.8	0	1	112	0.00	30.459 
03:55	29.0	29.0	29.0	71	20.8	0	1	112	0.00	30.459 
04:00	29.0	29.0	29.0	71	20.8	0	1	112	0.00	30.459 
04:05	29.1	29.1	29.1	71	20.9	0	1	112	0.00	30.461 
04:10	29.1	29.1	29.1	71	20.9	0	1	112	0.00	30.460 
04:15	29.3	29.3	29.3	71	21.1	1	2	112	0.00	30.461 
04:20	29.3	29.3	29.3	71	21.1	1	2	112	0.00	30.461 
04:25	29.4	29.4	29.4	71	21.2	1	3	112	0.00	30.460 
04:30	29.4	29.4	29.4	71	21.2	1	2	112	0.00	30.461 
04:35	29.4	29.4	29.4	72	21.5	1	3	112	0.00	30.460 
04:40	29.4	29.4	29.4	72	21.5	2	4	112	0.00	30.459 
04:45	29.4	29.4	29.4	72	21.5	1	3	112	0.00	30.461 
04:50	29.4	29.4	29.4	73	21.8	1	3	112	0.00	30.461 
04:55	29.4	29.4	29.4	73	21.8	1	2	112	0.00	30.460 
05:00	29.4	29.4	29.4	73	21.8	0	2	112	0.00	30.460 
05:05	29.4	29.4	29.4	73	21.8	0	2	112	0.00	30.458 
05:10	29.5	29.5	29.5	73	21.9	0	2	112	0.00	30.455 
05:15	29.5	29.5	29.5	72	21.6	1	3	112	0.00	30.457 
05:20	29.5	29.5	29.5	72	21.6	1	4	112	0.00	30.457 
05:25	29.4	29.4	29.4	73	21.8	2	3	112	0.00	30.458 
05:30	29.4	29.4	29.4	73	21.8	2	3	112	0.00	30.449 
05:35	29.4	29.4	29.4	73	21.8	1	4	112	0.00	30.446 
05:40	29.3	29.3	29.3	74	22.1	2	4	112	0.00	30.446 
05:45	29.3	29.3	29.3	74	22.1	1	4	68	0.00	30.452 
05:50	29.3	29.3	29.3	74	22.1	1	3	90	0.00	30.453 
05:55	29.3	29.3	29.3	75	22.4	0	2	112	0.00	30.452 
06:00	29.3	29.3	29.3	75	22.4	0	2	112	0.00	30.458 
06:05	29.3	29.3	29.3	75	22.4	0	1	112	0.00	30.462 
06:10	29.3	29.3	29.3	76	22.7	0	3	112	0.00	30.461 
06:15	29.3	29.3	29.3	76	22.7	0	2	112	0.00	30.463 
06:20	29.3	29.3	29.3	76	22.7	0	0	---	0.00	30.464 
06:25	29.3	29.3	29.3	76	22.7	0	1	112	0.00	30.468 
06:30	29.3	29.3	29.3	76	22.7	0	1	112	0.00	30.465 
06:35	29.4	29.4	29.4	76	22.8	0	1	112	0.00	30.465 
06:40	29.4	29.4	29.4	76	22.8	0	1	112	0.00	30.466 
06:45	29.4	29.4	29.4	76	22.8	0	0	---	0.00	30.470 
06:50	29.4	29.4	29.4	76	22.8	0	0	---	0.00	30.469 
06:55	29.4	29.4	29.4	76	22.8	0	1	112	0.00	30.472 
07:00	29.4	29.4	29.4	76	22.8	0	0	---	0.00	30.473 
07:05	29.4	29.4	29.4	77	23.1	0	0	---	0.00	30.481 
07:10	29.5	29.5	29.5	77	23.2	0	1	112	0.00	30.478 
07:15	29.5	29.5	29.5	77	23.2	0	1	112	0.00	30.477 
07:20	29.7	29.7	29.7	77	23.4	0	1	112	0.00	30.478 
07:25	29.7	29.7	29.7	77	23.4	0	2	112	0.00	30.478 
07:30	29.8	29.8	29.8	77	23.5	0	1	112	0.00	30.479 
07:35	30.0	30.0	30.0	77	23.7	0	2	112	0.00	30.479 
07:40	30.0	30.0	30.0	76	23.4	0	1	112	0.00	30.480 
07:45	30.1	30.1	30.1	77	23.8	0	1	112	0.00	30.479 
07:50	30.3	30.3	30.3	77	24.0	0	1	112	0.00	30.481 
07:55	30.6	30.6	30.6	77	24.3	0	1	112	0.00	30.478 
08:00	30.7	30.7	30.7	76	24.0	0	1	112	0.00	30.476 
08:05	31.0	31.0	31.0	76	24.3	0	2	112	0.00	30.480 
08:10	31.2	31.2	31.2	75	24.2	0	2	112	0.00	30.481 
08:15	31.5	31.5	31.5	75	24.5	0	2	112	0.00	30.482 
08:20	31.8	31.8	31.8	75	24.8	0	2	112	0.00	30.483 
08:25	32.1	32.1	32.1	75	25.1	0	1	112	0.00	30.484 
08:30	32.4	32.4	32.4	74	25.1	0	1	112	0.00	30.486 
08:35	32.8	32.8	32.8	73	25.1	0	1	112	0.00	30.483 
08:40	33.2	33.2	33.2	72	25.2	0	1	112	0.00	30.483 
08:45	33.8	33.8	33.8	69	24.7	1	2	112	0.00	30.481 
08:50	34.6	34.6	34.6	69	25.5	0	2	112	0.00	30.481 
08:55	35.2	35.2	35.2	67	25.4	0	2	112	0.00	30.479 
09:00	36.2	36.2	36.2	65	25.6	1	3	112	0.00	30.479 
09:05	36.9	36.9	36.9	63	25.5	1	5	112	0.00	30.474 
09:10	37.5	37.5	37.5	63	26.1	0	1	112	0.00	30.474 
09:15	38.2	38.2	38.2	61	26.0	1	2	112	0.00	30.473 
09:20	38.8	38.8	38.8	56	24.5	1	6	90	0.00	30.471 
09:25	39.3	39.3	39.3	56	24.9	1	3	90	0.00	30.474 
09:30	40.1	40.1	40.1	55	25.2	0	4	90	0.00	30.474 
09:35	40.5	40.5	40.5	52	24.3	1	4	90	0.00	30.475 
09:40	40.6	40.6	40.6	53	24.8	1	4	90	0.00	30.476 
09:45	40.6	40.6	40.6	52	24.4	1	3	292	0.00	30.480 
09:50	41.3	41.3	41.3	52	25.0	0	2	90	0.00	30.477 
09:55	41.9	41.9	41.9	49	24.1	1	3	135	0.00	30.475 
10:00	42.5	42.5	42.5	49	24.7	1	3	135	0.00	30.474 
10:05	42.6	42.6	42.6	50	25.3	0	2	248	0.00	30.475 
10:10	43.3	43.3	43.3	47	24.4	1	3	90	0.00	30.476 
10:15	43.9	43.9	43.9	46	24.5	1	4	112	0.00	30.474 
10:20	44.9	44.9	44.9	43	23.8	1	4	90	0.00	30.475 
10:25	45.5	45.5	45.5	42	23.8	3	6	112	0.00	30.476 
10:30	46.1	46.1	46.1	45	26.0	2	6	68	0.00	30.479 
10:35	46.0	46.0	46.0	42	24.2	1	4	45	0.00	30.478 
10:40	45.7	45.7	45.7	43	24.5	1	2	90	0.00	30.477 
10:45	45.4	45.4	45.4	44	24.8	1	3	270	0.00	30.478 
10:50	45.4	45.4	45.4	42	23.7	2	6	112	0.00	30.477 
10:55	45.8	45.8	45.8	43	24.6	1	5	90	0.00	30.477 
11:00	46.2	46.2	46.2	43	25.0	1	5	0	0.00	30.480 
11:05	47.0	47.0	47.0	41	24.5	1	4	225	0.00	30.481 
11:10	47.7	47.7	47.7	41	25.2	1	6	248	0.00	30.482 
11:15	48.5	48.5	48.5	39	24.7	1	4	248	0.00	30.480 
11:20	48.6	48.6	48.6	39	24.8	1	4	292	0.00	30.476 
11:25	48.0	48.0	48.0	39	24.2	2	5	248	0.00	30.479 
11:30	47.4	47.4	47.4	38	23.1	1	4	225	0.00	30.475 
11:35	47.3	47.3	47.3	40	24.2	1	2	90	0.00	30.474 
11:40	47.4	47.4	47.4	38	23.1	2	5	270	0.00	30.474 
11:45	47.3	47.3	47.3	39	23.6	0	3	248	0.00	30.473 
11:50	47.6	47.6	47.6	38	23.3	0	2	248	0.00	30.471 
11:55	47.9	47.9	47.9	40	24.8	1	3	248	0.00	30.470 
12:00	48.0	48.0	48.0	38	23.6	0	2	315	0.00	30.468 
12:05	48.2	48.2	48.2	38	23.8	1	3	225	0.00	30.469 
12:10	48.3	48.3	48.3	41	25.7	2	5	112	0.00	30.469 
12:15	49.1	49.1	49.1	39	25.2	2	5	90	0.00	30.466 
12:20	49.8	49.8	49.8	36	23.9	1	4	112	0.00	30.462 
12:25	50.4	50.4	50.4	37	25.1	1	4	292	0.00	30.456 
12:30	50.5	50.5	50.5	38	25.9	1	5	315	0.00	30.454 
12:35	50.7	50.7	50.7	36	24.7	1	3	68	0.00	30.453 
12:40	50.8	50.8	50.8	37	25.5	1	3	68	0.00	30.453 
12:45	51.3	51.3	51.3	40	27.8	0	3	68	0.00	30.451 
12:50	51.7	51.7	51.7	36	25.6	1	4	68	0.00	30.447 
12:55	52.2	52.2	52.2	33	24.0	2	9	292	0.00	30.447 
13:00	52.0	52.0	52.0	34	24.5	2	9	248	0.00	30.446 
13:05	52.2	52.2	52.2	35	25.4	1	4	248	0.00	30.442 
13:10	52.6	52.6	52.6	37	27.1	1	3	270	0.00	30.441 
13:15	52.8	52.8	52.8	34	25.2	2	6	90	0.00	30.437 
13:20	53.1	53.1	53.1	32	24.0	1	3	270	0.00	30.435 
13:25	52.8	52.8	52.8	33	24.5	2	5	248	0.00	30.434 
13:30	52.2	52.2	52.2	34	24.7	1	4	270	0.00	30.434 
13:35	52.3	52.3	52.3	38	27.5	0	3	270	0.00	30.433 
13:40	52.9	52.9	52.9	33	24.6	1	4	270	0.00	30.430 
13:45	53.6	53.6	53.6	35	26.6	1	2	338	0.00	30.421 
13:50	54.1	54.1	54.1	34	26.4	1	3	225	0.00	30.420 
13:55	54.4	54.4	54.4	33	25.9	1	5	225	0.00	30.419 
14:00	54.7	54.7	54.7	33	26.2	2	6	248	0.00	30.418 
14:05	54.4	54.4	54.4	32	25.2	1	4	338	0.00	30.419 
14:10	54.2	54.2	54.2	33	25.7	1	3	338	0.00	30.418 
14:15	54.2	54.2	54.2	31	24.2	1	4	0	0.00	30.420 
14:20	54.7	54.7	54.7	33	26.2	1	4	248	0.00	30.419 
14:25	54.8	54.8	54.8	31	24.8	1	4	90	0.00	30.417 
14:30	55.1	55.1	55.1	30	24.2	0	3	270	0.00	30.416 
14:35	55.0	55.0	55.0	31	24.9	2	5	90	0.00	30.414 
14:40	54.5	54.5	54.5	29	22.9	1	5	112	0.00	30.412 
14:45	54.7	54.7	54.7	33	26.2	1	2	68	0.00	30.410 
14:50	55.3	55.3	55.3	29	23.6	1	2	270	0.00	30.409 
14:55	55.7	55.7	55.7	29	23.9	1	4	270	0.00	30.405 
15:00	55.3	55.3	55.3	29	23.6	1	3	315	0.00	30.402 
15:05	55.0	55.0	55.0	29	23.3	0	2	315	0.00	30.400 
15:10	55.0	55.0	55.0	31	24.9	1	2	315	0.00	30.400 
15:15	55.1	55.1	55.1	31	25.0	1	5	45	0.00	30.400 
15:20	55.3	55.3	55.3	30	24.4	1	4	45	0.00	30.400 
15:25	55.6	55.6	55.6	31	25.5	1	3	248	0.00	30.401 
15:30	55.9	55.9	55.9	32	26.5	1	3	270	0.00	30.400 
15:35	55.9	55.9	55.9	30	24.9	0	2	270	0.00	30.400 
15:40	55.6	55.6	55.6	33	27.0	1	3	0	0.00	30.399 
15:45	55.4	55.4	55.4	32	26.0	0	1	0	0.00	30.398 
15:50	55.4	55.4	55.4	30	24.5	1	3	0	0.00	30.397 
15:55	55.1	55.1	55.1	32	25.8	1	5	45	0.00	30.395 
16:00	54.8	54.8	54.8	30	24.0	1	4	112	0.00	30.397 
16:05	54.5	54.5	54.5	31	24.5	1	4	112	0.00	30.396 
16:10	54.5	54.5	54.5	31	24.5	0	2	112	0.00	30.396 
16:15	55.0	55.0	55.0	33	26.4	0	3	248	0.00	30.391 
16:20	55.6	55.6	55.6	33	27.0	1	3	248	0.00	30.392 
16:25	55.7	55.7	55.7	30	24.8	0	2	225	0.00	30.395 
16:30	55.6	55.6	55.6	31	25.5	0	3	90	0.00	30.395 
16:35	55.4	55.4	55.4	32	26.0	0	2	68	0.00	30.396 
16:40	55.6	55.6	55.6	31	25.5	0	2	68	0.00	30.393 
16:45	55.7	55.7	55.7	33	27.0	0	2	68	0.00	30.392 
16:50	55.4	55.4	55.4	32	26.0	1	2	68	0.00	30.391 
16:55	55.1	55.1	55.1	33	26.5	0	3	68	0.00	30.390 
17:00	55.0	55.0	55.0	31	24.9	0	2	68	0.00	30.391 
17:05	54.7	54.7	54.7	31	24.7	1	3	68	0.00	30.392 
17:10	54.5	54.5	54.5	32	25.3	0	2	68	0.00	30.394 
17:15	54.5	54.5	54.5	31	24.5	0	2	68	0.00	30.395 
17:20	54.5	54.5	54.5	34	26.7	0	2	68	0.00	30.395 
17:25	54.4	54.4	54.4	33	25.9	1	2	68	0.00	30.396 
17:30	54.1	54.1	54.1	32	24.9	1	2	68	0.00	30.396 
17:35	53.9	53.9	53.9	32	24.7	0	1	68	0.00	30.398 
17:40	53.9	53.9	53.9	33	25.5	0	2	68	0.00	30.399 
17:45	53.8	53.8	53.8	32	24.6	0	1	68	0.00	30.400 
17:50	53.6	53.6	53.6	32	24.5	0	2	68	0.00	30.400 
17:55	53.6	53.6	53.6	34	25.9	0	1	68	0.00	30.401 
18:00	53.5	53.5	53.5	34	25.8	0	2	68	0.00	30.402 
18:05	53.3	53.3	53.3	34	25.7	0	1	68	0.00	30.402 
18:10	53.2	53.2	53.2	34	25.6	0	1	68	0.00	30.402 
18:15	53.1	53.1	53.1	33	24.8	0	1	68	0.00	30.402 
18:20	52.9	52.9	52.9	35	26.0	0	1	68	0.00	30.402 
18:25	52.6	52.6	52.6	36	26.4	0	1	68	0.00	30.403 
18:30	52.3	52.3	52.3	37	26.8	0	0	---	0.00	30.404 
18:35	51.7	51.7	51.7	37	26.3	0	0	---	0.00	30.404 
18:40	51.3	51.3	51.3	38	26.6	0	0	---	0.00	30.405 
18:45	50.8	50.8	50.8	39	26.7	0	1	68	0.00	30.405 
18:50	50.4	50.4	50.4	39	26.4	0	0	---	0.00	30.407 
18:55	49.8	49.8	49.8	41	27.1	0	0	---	0.00	30.411 
19:00	49.2	49.2	49.2	41	26.5	0	0	---	0.00	30.411 
19:05	48.6	48.6	48.6	42	26.6	0	0	---	0.00	30.410 
19:10	48.0	48.0	48.0	42	26.0	0	0	---	0.00	30.412 
19:15	47.4	47.4	47.4	43	26.0	0	0	---	0.00	30.414 
19:20	46.8	46.8	46.8	45	26.6	0	0	---	0.00	30.413 
19:25	46.2	46.2	46.2	46	26.6	0	0	---	0.00	30.414 
19:30	45.7	45.7	45.7	47	26.6	0	0	---	0.00	30.415 
19:35	45.2	45.2	45.2	47	26.2	0	0	---	0.00	30.415 
19:40	44.6	44.6	44.6	48	26.1	0	0	---	0.00	30.415 
19:45	44.2	44.2	44.2	49	26.3	0	0	---	0.00	30.417 
19:50	43.8	43.8	43.8	50	26.4	0	0	---	0.00	30.418 
19:55	43.2	43.2	43.2	51	26.3	0	0	---	0.00	30.421 
20:00	42.8	42.8	42.8	53	26.9	0	0	---	0.00	30.423 
20:05	42.5	42.5	42.5	53	26.6	0	0	---	0.00	30.420 
20:10	42.2	42.2	42.2	53	26.3	0	0	---	0.00	30.420 
20:15	41.9	41.9	41.9	54	26.5	0	0	---	0.00	30.421 
20:20	41.8	41.8	41.8	54	26.4	0	0	---	0.00	30.422 
20:25	41.5	41.5	41.5	55	26.6	0	0	---	0.00	30.422 
20:30	41.2	41.2	41.2	56	26.7	0	0	---	0.00	30.427 
20:35	40.9	40.9	40.9	57	26.9	0	0	---	0.00	30.429 
20:40	40.6	40.6	40.6	57	26.6	0	0	---	0.00	30.431 
20:45	40.3	40.3	40.3	58	26.7	0	0	---	0.00	30.434 
20:50	40.2	40.2	40.2	57	26.2	0	0	---	0.00	30.434 
20:55	39.9	39.9	39.9	58	26.3	0	0	---	0.00	30.435 
21:00	39.6	39.6	39.6	59	26.5	0	0	---	0.00	30.434 
21:05	39.3	39.3	39.3	59	26.2	0	0	---	0.00	30.428 
21:10	39.1	39.1	39.1	60	26.4	0	0	---	0.00	30.427 
21:15	38.8	38.8	38.8	61	26.5	0	0	---	0.00	30.427 
21:20	38.3	38.3	38.3	62	26.4	0	0	---	0.00	30.427 
21:25	38.0	38.0	38.0	63	26.5	0	0	---	0.00	30.430 
21:30	37.8	37.8	37.8	63	26.4	0	0	---	0.00	30.430 
21:35	37.6	37.6	37.6	64	26.5	0	0	---	0.00	30.433 
21:40	37.3	37.3	37.3	64	26.3	0	0	---	0.00	30.433 
21:45	37.2	37.2	37.2	64	26.2	0	0	---	0.00	30.434 
21:50	37.0	37.0	37.0	65	26.3	0	0	---	0.00	30.434 
21:55	36.9	36.9	36.9	65	26.3	0	0	---	0.00	30.435 
22:00	37.0	37.0	37.0	65	26.3	0	0	---	0.00	30.436 
22:05	37.0	37.0	37.0	65	26.3	0	0	---	0.00	30.434 
22:10	37.0	37.0	37.0	65	26.3	0	0	---	0.00	30.435 
22:15	36.9	36.9	36.9	65	26.3	0	0	---	0.00	30.434 
22:20	36.6	36.6	36.6	66	26.3	0	0	---	0.00	30.434 
22:25	36.5	36.5	36.5	66	26.2	0	0	---	0.00	30.433 
22:30	36.3	36.3	36.3	66	26.0	0	0	---	0.00	30.433 
22:35	36.2	36.2	36.2	68	26.7	0	0	---	0.00	30.433 
22:40	36.2	36.2	36.2	68	26.7	0	0	---	0.00	30.433 
22:45	36.0	36.0	36.0	68	26.5	0	0	---	0.00	30.431 
22:50	35.9	35.9	35.9	68	26.4	0	0	---	0.00	30.431 
22:55	35.8	35.8	35.8	69	26.6	0	0	---	0.00	30.431 
23:00	35.5	35.5	35.5	69	26.4	0	0	---	0.00	30.432 
23:05	35.3	35.3	35.3	69	26.2	0	0	---	0.00	30.430 
23:10	35.2	35.2	35.2	70	26.4	0	0	---	0.00	30.432 
23:15	35.0	35.0	35.0	70	26.2	0	0	---	0.00	30.433 
23:20	35.0	35.0	35.0	71	26.6	0	0	---	0.00	30.433 
23:25	34.9	34.9	34.9	71	26.5	0	0	---	0.00	30.433 
23:30	34.7	34.7	34.7	73	26.9	0	0	---	0.00	30.434 
23:35	34.7	34.7	34.7	76	27.9	0	0	---	0.00	30.433 
23:40	34.7	34.7	34.7	76	27.9	0	0	---	0.00	30.433 
23:45	34.7	34.7	34.7	77	28.2	0	0	---	0.00	30.436 
23:50	34.6	34.6	34.6	77	28.1	0	0	---	0.00	30.435 
23:55	34.4	34.4	34.4	77	27.9	0	0	---	0.00	30.434 

CoCoRaHS
IN-AL-39
A2 Web Hosting
Creative Commons License
GoDaddy
search engine by freefind advanced

loaded 2018-11-17 12:26:16 • last modified 2010-11-18 10:43:29
Privacy PolicyDisclaimer
• wx.awcolley.com is powered by PmWiki v.2002016 •
• all content (unless otherwise noted) © 2018 A W Colley